Latest Weather Observations for Yamba

IDN60801

Issued at 5:03 pm EST Monday 6 July 2015 (issued every 30 minutes, with the page automatically refreshed every 10 minutes)

About weather observations | Map of weather stations | Latest weather observations for NSW | Other Formats
Station Details ID: 058012 Name: YAMBA PILOT STATION Lat: -29.43 Lon: 153.36 Height: 27.4 m
Data from the previous 72 hours. | See also: Recent months at Yamba
Date/Time
EST
Temp
°C
App
Temp
°C
Dew
Point
Rel
Hum
%
Delta-T
°C
Wind Press
QNH
hPa
Press
MSL
hPa
Rain
since 9 am
mm
Dir
 
Spd
km/h
Gust
km/h
Spd
kts
Gust
kts
06/05:00pm 18.3 17.7 12.3 68 3.3 NW 7 11 4 6 1013.8 1013.7 0.2
06/04:30pm 19.2 18.3 11.3 60 4.3 NNW 7 13 4 7 1013.6 1013.5 0.2
06/04:00pm 21.0 19.0 10.2 50 5.9 NNW 11 19 6 10 1013.5 1013.4 0.2
06/03:30pm 22.3 21.0 11.4 50 6.1 NNW 9 13 5 7 1013.5 1013.4 0.2
06/03:00pm 22.8 21.2 10.3 45 6.9 NW 9 15 5 8 1013.6 1013.5 0.2
06/02:30pm 22.9 21.2 10.0 44 7.0 NNW 9 15 5 8 1013.9 1013.8 0.2
06/02:00pm 22.5 20.3 9.3 43 7.1 NW 11 19 6 10 1014.0 1013.9 0.2
06/01:30pm 22.8 20.5 10.3 45 6.9 NW 13 22 7 12 1014.3 1014.2 0.2
06/01:00pm 22.6 20.3 9.0 42 7.3 NW 11 19 6 10 1014.6 1014.5 0.2
06/12:30pm 21.7 19.3 9.9 47 6.4 NW 13 19 7 10 1015.1 1015.0 0.2
06/12:00pm 21.2 18.5 10.4 50 5.9 NW 15 24 8 13 1015.8 1015.7 0.2
06/11:30am 20.7 18.6 11.3 55 5.2 NW 13 19 7 10 1016.3 1016.2 0.2
06/11:00am 19.5 17.1 10.2 55 5.0 WNW 13 19 7 10 1016.8 1016.7 0.0
06/10:30am 18.5 15.2 9.6 56 4.7 WNW 17 22 9 12 1017.2 1017.1 0.0
06/10:00am 17.0 13.6 9.2 60 4.0 WNW 17 24 9 13 1017.4 1017.3 0.0
06/09:30am 15.9 13.6 10.4 70 2.9 WNW 13 20 7 11 1017.8 1017.7 0.0
06/09:00am 13.8 11.3 9.6 76 2.2 WNW 13 20 7 11 1017.8 1017.7 0.0
06/08:30am 12.1 9.4 9.1 82 1.5 W 13 17 7 9 1017.9 1017.9 0.0
06/08:00am 10.7 8.0 8.8 88 0.9 WSW 13 17 7 9 1017.9 1017.9 0.0
06/07:30am 9.7 7.3 8.6 93 0.5 WSW 11 15 6 8 1017.9 1017.9 0.0
06/07:00am 9.7 7.3 8.6 93 0.5 W 11 13 6 7 1017.7 1017.6 0.0
06/06:30am 9.6 6.9 9.1 97 0.2 W 13 15 7 8 1017.5 1017.4 0.0
06/06:00am 9.8 6.8 9.3 97 0.2 WSW 15 19 8 10 1017.5 1017.4 0.0
06/05:30am 10.1 6.8 9.6 97 0.3 WSW 17 19 9 10 1017.5 1017.4 0.0
06/05:00am 10.5 7.2 9.7 95 0.4 W 17 20 9 11 1017.5 1017.4 0.0
06/04:30am 10.9 8.0 9.5 91 0.7 W 15 19 8 10 1017.5 1017.4 0.0
06/04:00am 10.7 7.8 9.6 93 0.6 W 15 19 8 10 1017.6 1017.5 0.0
06/03:30am 10.7 8.3 10.2 97 0.3 WSW 13 15 7 8 1017.9 1017.9 0.0
06/03:00am 11.2 9.3 10.4 95 0.4 WSW 11 15 6 8 1018.2 1018.2 0.0
06/02:30am 11.3 9.5 10.7 96 0.3 WSW 11 17 6 9 1018.6 1018.6 0.0
06/02:00am 11.6 9.1 11.0 96 0.3 WSW 15 17 8 9 1018.8 1018.8 0.0
06/01:30am 11.6 9.5 11.1 97 0.3 WSW 13 17 7 9 1019.1 1019.1 0.0
06/01:00am 11.5 9.4 11.0 97 0.3 WSW 13 15 7 8 1019.2 1019.2 0.0
06/12:30am 12.1 10.9 11.5 96 0.3 WSW 9 11 5 6 1019.2 1019.2 0.0
06/12:00am 12.3 10.7 11.4 94 0.5 W 11 13 6 7 1019.5 1019.4 0.0
 
Date/Time
EST
Temp
°C
App
Temp
°C
Dew
Point
Rel
Hum
%
Delta-T
°C
Wind Press
QNH
hPa
Press
MSL
hPa
Rain
since 9 am
mm
Dir
 
Spd
km/h
Gust
km/h
Spd
kts
Gust
kts
05/11:30pm 12.8 11.1 11.2 90 0.8 W 11 15 6 8 1019.5 1019.5 0.0
05/11:00pm 13.3 11.1 10.8 85 1.3 WSW 13 17 7 9 1019.8 1019.8 0.0
05/10:30pm 13.4 11.3 11.1 86 1.2 W 13 17 7 9 1020.0 1020.0 0.0
05/10:00pm 13.8 11.7 11.3 85 1.3 W 13 17 7 9 1020.1 1020.1 0.0
05/09:30pm 14.9 13.6 12.4 85 1.4 NW 11 13 6 7 1019.9 1019.9 0.0
05/09:00pm 14.7 13.8 12.6 87 1.1 NW 9 13 5 7 1019.8 1019.8 0.0
05/08:30pm 15.1 13.9 12.8 86 1.3 WNW 11 15 6 8 1019.8 1019.8 0.0
05/08:00pm 15.5 14.7 13.0 85 1.4 NW 9 13 5 7 1019.5 1019.5 0.0
05/07:30pm 15.9 15.0 12.6 81 1.8 NW 9 13 5 7 1019.5 1019.5 0.0
05/07:00pm 16.1 15.0 12.1 77 2.2 N 9 13 5 7 1019.4 1019.4 0.0
05/06:30pm 17.5 17.4 13.2 76 2.4 NNE 6 9 3 5 1019.2 1019.2 0.0
05/06:00pm 17.9 17.6 12.8 72 2.8 E 6 7 3 4 1019.1 1019.1 0.0
05/05:30pm 18.0 18.7 12.2 69 3.2 CALM 0 0 0 0 1018.9 1018.9 0.0
05/05:00pm 18.5 17.6 10.6 60 4.2 NNE 6 7 3 4 1018.9 1018.9 0.0
05/04:30pm 18.6 17.9 9.9 57 4.6 NNW 4 6 2 3 1019.0 1019.0 0.0
05/04:00pm 20.9 20.2 11.3 54 5.3 NNW 6 7 3 4 1019.0 1019.0 0.0
05/03:30pm 21.9 21.0 11.3 51 5.9 NNW 7 11 4 6 1019.0 1019.0 0.0
05/03:00pm 21.2 20.1 10.1 49 6.0 N 6 13 3 7 1019.1 1019.1 0.0
05/02:30pm 19.5 18.8 12.0 62 4.2 E 7 9 4 5 1019.2 1019.2 0.0
05/02:00pm 19.2 18.4 11.7 62 4.1 ENE 7 11 4 6 1019.3 1019.3 0.0
05/01:30pm 19.7 18.8 11.5 59 4.5 ENE 7 13 4 7 1019.5 1019.5 0.0
05/01:00pm 21.4 20.5 11.4 53 5.5 NNW 7 13 4 7 1019.8 1019.8 0.0
05/12:30pm 20.6 19.4 10.4 52 5.5 NW 7 11 4 6 1020.2 1020.2 0.0
05/12:00pm 19.7 17.9 9.3 51 5.5 NW 9 15 5 8 1020.7 1020.7 0.0
05/11:30am 19.4 18.1 10.1 55 5.0 NW 7 13 4 7 1021.3 1021.3 0.0
05/11:00am 17.2 14.8 8.6 57 4.4 W 11 15 6 8 1021.8 1021.8 0.0
05/10:30am 16.0 13.5 8.2 60 3.9 WSW 11 17 6 9 1022.2 1022.2 0.0
05/10:00am 14.9 12.5 8.8 67 3.1 WSW 11 17 6 9 1022.3 1022.3 0.0
05/09:30am 13.6 11.2 8.7 72 2.5 W 11 19 6 10 1022.5 1022.5 0.0
05/09:00am 12.3 9.8 8.0 75 2.1 WSW 11 17 6 9 1022.4 1022.4 0.0
05/08:30am 11.2 8.2 7.5 78 1.8 W 13 19 7 10 1022.3 1022.3 0.0
05/08:00am 10.2 7.7 8.1 87 1.0 W 11 15 6 8 1022.2 1022.2 0.0
05/07:30am 9.5 6.5 7.9 90 0.8 WSW 13 17 7 9 1022.0 1022.0 0.0
05/07:00am 9.1 6.1 7.7 91 0.7 WSW 13 17 7 9 1021.7 1021.7 0.0
05/06:30am 9.2 7.0 7.8 91 0.7 SW 9 15 5 8 1021.6 1021.6 0.0
05/06:00am 9.4 7.2 7.8 90 0.8 SW 9 15 5 8 1021.4 1021.4 0.0
05/05:30am 9.2 7.2 8.7 97 0.2 SW 9 15 5 8 1021.2 1021.2 0.0
05/05:00am 9.7 7.1 9.2 97 0.2 WSW 13 19 7 10 1021.0 1021.0 0.0
05/04:30am 10.0 7.4 9.2 95 0.4 WSW 13 17 7 9 1020.9 1020.9 0.0
05/04:00am 10.2 7.6 9.4 95 0.4 WSW 13 20 7 11 1021.1 1021.1 0.0
05/03:30am 10.6 8.2 10.1 97 0.3 WSW 13 17 7 9 1021.1 1021.1 0.0
05/03:00am 10.9 9.0 10.4 97 0.3 WSW 11 17 6 9 1021.2 1021.2 0.0
05/02:30am 11.1 9.2 10.6 97 0.3 WSW 11 17 6 9 1021.4 1021.4 0.0
05/02:00am 11.2 9.7 10.7 97 0.3 WSW 9 13 5 7 1021.5 1021.5 0.0
05/01:30am 11.5 10.1 10.9 96 0.3 SW 9 11 5 6 1021.6 1021.6 0.0
05/01:00am 11.7 10.4 11.1 96 0.3 WSW 9 13 5 7 1021.7 1021.7 0.0
05/12:30am 11.6 10.3 11.1 97 0.3 SW 9 15 5 8 1021.6 1021.6 0.0
05/12:00am 11.9 9.9 11.4 97 0.3 WSW 13 15 7 8 1021.8 1021.8 0.0
 
Date/Time
EST
Temp
°C
App
Temp
°C
Dew
Point
Rel
Hum
%
Delta-T
°C
Wind Press
QNH
hPa
Press
MSL
hPa
Rain
since 9 am
mm
Dir
 
Spd
km/h
Gust
km/h
Spd
kts
Gust
kts
04/11:30pm 12.1 10.0 11.2 94 0.5 WSW 13 17 7 9 1021.6 1021.6 0.0
04/11:00pm 12.8 10.4 11.5 92 0.7 WSW 15 17 8 9 1021.6 1021.6 0.0
04/10:30pm 13.4 11.5 11.8 90 0.9 WSW 13 15 7 8 1021.6 1021.6 0.0
04/10:00pm 13.1 11.5 11.5 90 0.8 W 11 13 6 7 1021.6 1021.6 0.0
04/09:30pm 13.4 11.9 12.0 91 0.8 W 11 13 6 7 1021.5 1021.5 0.0
04/09:00pm 13.5 12.4 12.1 91 0.8 W 9 13 5 7 1021.4 1021.4 0.0
04/08:30pm 14.7 14.3 12.9 89 1.0 WNW 7 11 4 6 1021.4 1021.4 0.0
04/08:00pm 14.5 14.0 12.5 88 1.1 NNW 7 11 4 6 1021.3 1021.3 0.0
04/07:30pm 14.7 14.1 12.2 85 1.4 NNW 7 9 4 5 1021.3 1021.3 0.0
04/07:00pm 15.4 14.9 12.2 81 1.7 NNW 6 7 3 4 1021.1 1021.1 0.0
04/06:30pm 16.2 15.6 11.6 74 2.5 N 6 9 3 5 1020.9 1020.9 0.0
04/06:00pm 16.6 16.0 11.7 73 2.7 NE 6 9 3 5 1020.7 1020.7 0.0
04/05:30pm 16.2 15.4 11.2 72 2.7 NNE 6 11 3 6 1020.6 1020.6 0.0
04/05:00pm 16.5 15.7 11.0 70 2.9 NE 6 9 3 5 1020.5 1020.5 0.0
04/04:30pm 16.9 15.9 11.0 68 3.2 ENE 7 11 4 6 1020.5 1020.5 0.0
04/04:00pm 17.4 16.1 10.1 62 3.9 ENE 7 11 4 6 1020.5 1020.5 0.0
04/03:30pm 18.2 17.1 10.6 61 4.1 ENE 7 9 4 5 1020.6 1020.6 0.0
04/03:00pm 20.0 18.7 9.3 50 5.7 NW 6 7 3 4 1020.6 1020.6 0.0
04/02:30pm 20.1 18.5 8.8 48 5.9 NW 7 9 4 5 1020.7 1020.7 0.0
04/02:00pm 20.7 19.5 10.2 51 5.7 NW 7 11 4 6 1020.8 1020.8 0.0
04/01:30pm 20.0 17.9 9.6 51 5.5 NW 11 15 6 8 1020.9 1020.9 0.0
04/01:00pm 19.8 18.7 10.8 56 4.9 NW 7 11 4 6 1021.4 1021.4 0.0
04/12:30pm 18.0 16.6 9.6 58 4.4 SW 7 11 4 6 1021.9 1021.9 0.0
04/12:00pm 17.5 15.6 9.2 58 4.3 SW 9 17 5 9 1022.5 1022.5 0.0
04/11:30am 17.4 15.6 9.6 60 4.1 WSW 9 15 5 8 1023.2 1023.2 0.0
04/11:00am 16.2 14.1 8.4 60 3.9 WSW 9 17 5 9 1023.6 1023.6 0.0
04/10:30am 15.2 12.7 8.0 62 3.6 WSW 11 20 6 11 1023.8 1023.8 0.0
04/10:00am 14.4 11.7 7.5 63 3.4 WSW 11 20 6 11 1023.9 1023.9 0.0
04/09:30am 13.1 9.6 7.1 67 2.9 WSW 15 20 8 11 1024.2 1024.2 0.0
04/09:00am 12.4 9.7 7.5 72 2.4 SW 11 19 6 10 1024.0 1024.0 0.0
04/08:30am 10.9 7.6 6.6 75 2.0 SW 13 24 7 13 1023.9 1023.9 0.0
04/08:00am 9.9 6.6 6.6 80 1.5 SW 13 20 7 11 1023.9 1023.9 0.0
04/07:30am 8.9 6.5 6.9 87 0.9 SW 9 17 5 9 1023.9 1023.9 0.0
04/07:00am 8.2 5.6 6.3 88 0.9 SW 9 17 5 9 1023.5 1023.5 0.0
04/06:30am 8.3 5.7 6.3 87 0.9 SW 9 17 5 9 1023.2 1023.2 0.0
04/06:00am 8.6 5.7 6.4 86 1.0 WSW 11 17 6 9 1023.1 1023.1 0.0
04/05:30am 8.8 5.9 6.4 85 1.1 SW 11 19 6 10 1022.9 1022.9 0.0
04/05:00am 8.9 6.2 7.4 90 0.7 WSW 11 15 6 8 1022.8 1022.8 0.0
04/04:30am 9.0 6.3 7.5 90 0.7 WSW 11 15 6 8 1022.9 1022.9 0.0
04/04:00am 9.1 6.4 7.4 89 0.8 W 11 15 6 8 1023.1 1023.1 0.0
04/03:30am 9.2 6.5 7.5 89 0.8 W 11 15 6 8 1023.3 1023.3 0.0
04/03:00am 9.5 7.3 7.8 89 0.8 WSW 9 15 5 8 1023.1 1023.1 0.0
04/02:30am 9.7 7.4 7.6 87 1.0 WSW 9 15 5 8 1023.1 1023.1 0.0
04/02:00am 10.2 8.0 7.8 85 1.2 WSW 9 15 5 8 1023.0 1023.0 0.0
04/01:30am 10.8 8.6 7.9 82 1.4 WSW 9 13 5 7 1023.2 1023.2 0.0
04/01:00am 11.0 9.2 7.9 81 1.5 SW 7 11 4 6 1023.1 1023.1 0.0
04/12:30am 11.5 9.4 8.2 80 1.6 WSW 9 15 5 8 1023.2 1023.2 0.0
04/12:00am 12.7 11.0 8.2 74 2.2 WSW 7 11 4 6 1023.5 1023.5 0.0
 
Date/Time
EST
Temp
°C
App
Temp
°C
Dew
Point
Rel
Hum
%
Delta-T
°C
Wind Press
QNH
hPa
Press
MSL
hPa
Rain
since 9 am
mm
Dir
 
Spd
km/h
Gust
km/h
Spd
kts
Gust
kts
03/11:30pm 13.1 10.6 8.0 71 2.5 SSW 11 19 6 10 1023.5 1023.5 0.0
03/11:00pm 13.3 10.4 8.0 70 2.6 SSW 13 20 7 11 1023.7 1023.7 0.0
03/10:30pm 13.5 9.8 7.9 69 2.8 S 17 22 9 12 1023.9 1023.9 0.0
03/10:00pm 13.9 10.3 8.3 69 2.8 S 17 24 9 13 1024.0 1024.0 0.0
03/09:30pm 13.8 10.2 8.4 70 2.7 S 17 24 9 13 1024.1 1024.1 0.0
03/09:00pm 13.7 10.9 8.5 71 2.6 S 13 20 7 11 1024.0 1024.0 0.0
03/08:30pm 14.2 11.8 8.8 70 2.7 SSW 11 17 6 9 1023.8 1023.8 0.0
03/08:00pm 14.1 12.2 8.9 71 2.6 SW 9 17 5 9 1023.6 1023.6 0.0
03/07:30pm 13.8 11.8 8.8 72 2.5 SSW 9 11 5 6 1023.5 1023.5 0.0
03/07:00pm 14.1 11.2 8.3 68 2.9 SSW 13 20 7 11 1023.3 1023.3 0.0
03/06:30pm 13.9 11.5 8.5 70 2.7 SSW 11 17 6 9 1023.1 1023.1 0.0
03/06:00pm 14.1 11.7 8.5 69 2.8 S 11 15 6 8 1022.9 1022.9 0.0
03/05:30pm 14.7 12.6 8.4 66 3.2 SSW 9 15 5 8 1022.7 1022.7 0.0

Other Formats:

Comma delimited format used in spreadsheet applications
http://www.bom.gov.au/fwo/IDN60801/IDN60801.94589.axf

JavaScript Object Notation format (JSON) in row-major order
http://www.bom.gov.au/fwo/IDN60801/IDN60801.94589.json